createdAt,value
2023-02-11T00:01:49.945Z,4.78
2023-02-11T00:04:19.678Z,4.78
2023-02-11T00:06:50.105Z,4.68
2023-02-11T00:09:19.895Z,4.63
2023-02-11T00:11:49.757Z,4.58
2023-02-11T00:14:19.133Z,4.51
2023-02-11T00:16:50.320Z,4.63
2023-02-11T00:19:20.527Z,4.56
2023-02-11T00:21:50.058Z,4.64
2023-02-11T00:24:19.343Z,4.57
2023-02-11T00:26:49.038Z,4.58
2023-02-11T00:29:18.417Z,4.59
2023-02-11T00:31:49.746Z,4.56
2023-02-11T00:34:19.055Z,4.55
2023-02-11T00:36:49.590Z,4.64
2023-02-11T00:39:18.928Z,4.61
2023-02-11T00:41:48.533Z,4.64
2023-02-11T00:44:17.840Z,4.63
2023-02-11T00:46:47.490Z,4.71
2023-02-11T00:49:18.213Z,4.60
2023-02-11T00:51:47.850Z,4.56
2023-02-11T00:54:17.113Z,4.57
2023-02-11T00:56:46.659Z,4.62
2023-02-11T00:59:15.821Z,4.72
2023-02-11T01:01:45.391Z,4.69
2023-02-11T01:04:14.606Z,4.72
2023-02-11T01:06:45.679Z,4.68
2023-02-11T01:09:14.963Z,4.61
2023-02-11T01:11:44.523Z,4.63
2023-02-11T01:14:13.765Z,4.65
2023-02-11T01:16:43.358Z,4.61
2023-02-11T01:19:12.626Z,4.61
2023-02-11T01:21:42.214Z,4.63
2023-02-11T01:24:12.915Z,4.54
2023-02-11T01:26:42.463Z,4.52
2023-02-11T01:29:11.671Z,4.52
2023-02-11T01:31:41.210Z,4.61
2023-02-11T01:34:10.386Z,4.53
2023-02-11T01:36:39.943Z,4.51
2023-02-11T01:39:09.915Z,4.46
2023-02-11T01:41:40.985Z,4.46
2023-02-11T01:44:26.325Z,4.57
2023-02-11T01:46:55.943Z,4.52
2023-02-11T01:49:27.474Z,4.51
2023-02-11T01:51:58.615Z,4.52
2023-02-11T01:54:45.561Z,4.56
2023-02-11T01:57:26.228Z,4.58
2023-02-11T02:00:00.359Z,4.56
2023-02-11T02:02:31.600Z,4.49
2023-02-11T02:05:02.134Z,4.49
2023-02-11T02:07:34.689Z,4.51
2023-02-11T02:10:05.751Z,4.47
2023-02-11T02:12:36.866Z,4.59
2023-02-11T02:15:22.589Z,4.57
2023-02-11T02:18:12.746Z,4.59
2023-02-11T02:20:54.545Z,4.51
2023-02-11T02:23:37.591Z,4.59
2023-02-11T02:26:33.529Z,4.55
2023-02-11T02:29:16.790Z,4.49
2023-02-11T02:31:54.513Z,4.53
2023-02-11T02:34:28.014Z,4.47
2023-02-11T02:36:57.636Z,4.47
2023-02-11T02:39:27.984Z,4.56
2023-02-11T02:41:57.195Z,4.47
2023-02-11T02:44:26.784Z,4.53
2023-02-11T02:46:56.084Z,4.59
2023-02-11T02:49:27.159Z,4.48
2023-02-11T02:52:18.407Z,4.44
2023-02-11T02:55:06.620Z,4.51
2023-02-11T02:57:37.951Z,4.47
2023-02-11T03:00:18.083Z,4.48
2023-02-11T03:02:51.384Z,4.47
2023-02-11T03:05:23.439Z,4.52
2023-02-11T03:07:53.180Z,4.54
2023-02-11T03:10:23.224Z,4.50
2023-02-11T03:12:52.497Z,4.54
2023-02-11T03:15:22.115Z,4.53
2023-02-11T03:17:51.428Z,4.61
2023-02-11T03:20:22.598Z,4.53
2023-02-11T03:22:52.634Z,4.53
2023-02-11T03:25:22.251Z,4.52
2023-02-11T03:27:53.544Z,4.48
2023-02-11T03:30:24.166Z,4.50
2023-02-11T03:32:54.052Z,4.54
2023-02-11T03:35:26.017Z,4.47
2023-02-11T03:37:55.659Z,4.58
2023-02-11T03:40:25.451Z,4.61
2023-02-11T03:42:55.770Z,4.52
2023-02-11T03:45:25.781Z,4.59
2023-02-11T03:47:56.280Z,4.59
2023-02-11T03:50:27.270Z,4.58
2023-02-11T03:52:56.970Z,4.57
2023-02-11T03:55:27.081Z,4.53
2023-02-11T03:57:56.362Z,4.59
2023-02-11T04:00:31.022Z,4.63
2023-02-11T04:03:00.232Z,4.70
2023-02-11T04:05:31.512Z,4.74
2023-02-11T04:08:00.774Z,4.64
2023-02-11T04:10:30.377Z,4.64
2023-02-11T04:12:59.708Z,4.73
2023-02-11T04:15:29.417Z,4.79
2023-02-11T04:17:58.757Z,4.85
2023-02-11T04:20:28.309Z,4.77
2023-02-11T04:22:59.005Z,4.80
2023-02-11T04:25:28.641Z,4.91
2023-02-11T04:27:57.972Z,4.80
2023-02-11T04:30:27.587Z,4.73
2023-02-11T04:32:56.838Z,4.75
2023-02-11T04:35:26.385Z,4.73
2023-02-11T04:37:55.625Z,4.67
2023-02-11T04:40:26.683Z,4.77
2023-02-11T04:42:55.984Z,4.83
2023-02-11T04:45:25.708Z,4.75
2023-02-11T04:47:55.027Z,4.77
2023-02-11T04:50:24.656Z,4.86
2023-02-11T04:52:53.879Z,4.86
2023-02-11T04:55:23.532Z,4.75
2023-02-11T04:57:55.447Z,4.89
2023-02-11T05:00:25.157Z,4.91
2023-02-11T05:02:54.519Z,4.71
2023-02-11T05:05:24.239Z,4.79
2023-02-11T05:07:53.552Z,4.78
2023-02-11T05:10:23.153Z,4.69
2023-02-11T05:12:55.866Z,4.65
2023-02-11T05:15:25.820Z,4.61
2023-02-11T05:17:55.113Z,4.69
2023-02-11T05:20:24.770Z,4.64
2023-02-11T05:22:54.074Z,4.62
2023-02-11T05:25:23.670Z,4.70
2023-02-11T05:27:54.438Z,4.57
2023-02-11T05:30:24.210Z,4.66
2023-02-11T05:32:53.580Z,4.64
2023-02-11T05:35:23.240Z,4.64
2023-02-11T05:37:52.515Z,4.67
2023-02-11T05:40:22.264Z,4.56
2023-02-11T05:42:51.553Z,4.56
2023-02-11T05:45:22.526Z,4.65
2023-02-11T05:47:51.758Z,4.60
2023-02-11T05:50:21.425Z,4.60
2023-02-11T05:52:50.739Z,4.66
2023-02-11T05:55:20.698Z,4.69
2023-02-11T05:57:49.924Z,4.67
2023-02-11T06:00:19.692Z,4.68
2023-02-11T06:02:50.459Z,4.67
2023-02-11T06:05:20.350Z,4.71
2023-02-11T06:07:49.604Z,4.71
2023-02-11T06:10:19.242Z,4.71
2023-02-11T06:12:48.655Z,4.68
2023-02-11T06:15:18.366Z,4.64
2023-02-11T06:17:47.649Z,4.69
2023-02-11T06:20:18.759Z,4.70
2023-02-11T06:22:48.173Z,4.75
2023-02-11T06:25:17.875Z,4.73
2023-02-11T06:27:47.307Z,4.71
2023-02-11T06:30:16.925Z,4.73
2023-02-11T06:32:46.430Z,4.71
2023-02-11T06:35:16.298Z,4.78
2023-02-11T06:37:47.186Z,4.85
2023-02-11T06:40:16.936Z,4.82
2023-02-11T06:42:46.459Z,4.87
2023-02-11T06:45:16.196Z,4.92
2023-02-11T06:47:45.474Z,4.84
2023-02-11T06:50:15.597Z,4.90
2023-02-11T06:52:44.899Z,4.97
2023-02-11T06:55:16.332Z,5.00
2023-02-11T06:57:45.527Z,5.03
2023-02-11T07:00:15.864Z,4.96
2023-02-11T07:02:45.101Z,5.05
2023-02-11T07:05:14.858Z,5.07
2023-02-11T07:07:44.129Z,5.09
2023-02-11T07:10:13.850Z,5.13
2023-02-11T07:12:44.607Z,5.09
2023-02-11T07:15:14.252Z,5.08
2023-02-11T07:17:43.570Z,5.15
2023-02-11T07:20:14.841Z,5.08
2023-02-11T07:22:44.159Z,5.18
2023-02-11T07:25:13.688Z,5.25
2023-02-11T07:27:44.479Z,5.24
2023-02-11T07:30:14.810Z,5.20
2023-02-11T07:32:44.093Z,5.26
2023-02-11T07:35:14.926Z,5.22
2023-02-11T07:37:44.163Z,5.19
2023-02-11T07:40:13.825Z,5.35
2023-02-11T07:42:44.596Z,5.31
2023-02-11T07:45:14.282Z,5.36
2023-02-11T07:47:43.993Z,5.27
2023-02-11T07:50:13.614Z,5.38
2023-02-11T07:52:42.893Z,5.41
2023-02-11T07:55:12.650Z,5.39
2023-02-11T07:57:42.127Z,5.44
2023-02-11T08:00:14.294Z,5.39
2023-02-11T08:02:43.527Z,5.42
2023-02-11T08:05:13.283Z,5.52
2023-02-11T08:07:42.560Z,5.58
2023-02-11T08:10:12.266Z,5.46
2023-02-11T08:12:41.534Z,5.52
2023-02-11T08:15:11.385Z,5.61
2023-02-11T08:17:42.240Z,5.58
2023-02-11T08:20:12.279Z,5.56
2023-02-11T08:22:43.624Z,5.79
2023-02-11T08:25:13.266Z,5.68
2023-02-11T08:27:42.613Z,5.66
2023-02-11T08:30:12.968Z,5.70
2023-02-11T08:32:43.897Z,5.75
2023-02-11T08:35:13.652Z,5.79
2023-02-11T08:37:42.933Z,5.74
2023-02-11T08:40:12.781Z,5.80
2023-02-11T08:42:41.955Z,5.81
2023-02-11T08:45:12.552Z,5.85
2023-02-11T08:47:41.818Z,5.90
2023-02-11T08:50:13.080Z,5.91
2023-02-11T08:52:43.216Z,5.92
2023-02-11T08:55:12.887Z,5.98
2023-02-11T08:57:42.060Z,6.01
2023-02-11T09:00:12.532Z,6.00
2023-02-11T09:02:41.866Z,5.98
2023-02-11T09:05:13.268Z,6.09
2023-02-11T09:07:42.621Z,6.04
2023-02-11T09:10:12.226Z,6.10
2023-02-11T09:12:41.483Z,6.12
2023-02-11T09:15:11.320Z,6.17
2023-02-11T09:17:40.545Z,6.25
2023-02-11T09:20:10.912Z,6.35
2023-02-11T09:22:41.734Z,6.28
2023-02-11T09:25:11.485Z,6.22
2023-02-11T09:27:40.846Z,6.31
2023-02-11T09:30:10.954Z,6.35
2023-02-11T09:32:40.301Z,6.42
2023-02-11T09:35:10.131Z,6.49
2023-02-11T09:37:39.308Z,6.49
2023-02-11T09:40:11.286Z,6.66
2023-02-11T09:42:45.540Z,6.75
2023-02-11T09:45:17.538Z,6.71
2023-02-11T09:47:50.933Z,6.82
2023-02-11T09:50:21.565Z,6.96
2023-02-11T09:52:52.989Z,6.89
2023-02-11T09:55:24.401Z,6.93
2023-02-11T09:57:53.662Z,6.95
2023-02-11T10:00:25.332Z,7.04
2023-02-11T10:02:59.086Z,6.94
2023-02-11T10:05:33.523Z,7.09
2023-02-11T10:08:03.126Z,7.16
2023-02-11T10:10:39.679Z,7.10
2023-02-11T10:13:16.419Z,7.17
2023-02-11T10:15:47.250Z,7.09
2023-02-11T10:18:19.870Z,7.10
2023-02-11T10:20:51.276Z,7.18
2023-02-11T10:23:21.255Z,7.23
2023-02-11T10:25:54.777Z,7.31
2023-02-11T10:28:25.421Z,7.36
2023-02-11T10:30:58.012Z,7.40
2023-02-11T10:33:28.354Z,7.48
2023-02-11T10:35:57.977Z,7.46
2023-02-11T10:38:27.873Z,7.48
2023-02-11T10:40:59.018Z,7.35
2023-02-11T10:43:29.009Z,7.48
2023-02-11T10:45:58.783Z,7.56
2023-02-11T10:48:37.876Z,7.48
2023-02-11T10:51:14.718Z,7.45
2023-02-11T10:53:44.067Z,7.48
2023-02-11T10:56:16.475Z,7.45
2023-02-11T10:58:47.327Z,7.52
2023-02-11T11:01:24.400Z,7.53
2023-02-11T11:03:54.490Z,7.62
2023-02-11T11:06:30.991Z,7.70
2023-02-11T11:09:01.276Z,7.66
2023-02-11T11:11:32.608Z,7.59
2023-02-11T11:14:03.394Z,7.44
2023-02-11T11:16:33.619Z,7.51
2023-02-11T11:19:17.207Z,7.53
2023-02-11T11:21:47.627Z,7.56
2023-02-11T11:24:18.352Z,7.63
2023-02-11T11:26:50.402Z,7.62
2023-02-11T11:29:20.266Z,7.56
2023-02-11T11:31:51.734Z,7.45
2023-02-11T11:34:23.109Z,7.54
2023-02-11T11:36:55.045Z,7.47
2023-02-11T11:39:25.852Z,7.48
2023-02-11T11:41:58.588Z,7.40
2023-02-11T11:44:31.944Z,7.42
2023-02-11T11:47:22.431Z,7.53
2023-02-11T11:49:53.449Z,7.55
2023-02-11T11:52:27.828Z,7.49
2023-02-11T11:54:57.582Z,7.64
2023-02-11T11:57:30.903Z,7.52
2023-02-11T12:00:00.439Z,7.48
2023-02-11T12:02:37.621Z,7.54
2023-02-11T12:05:08.677Z,7.57
2023-02-11T12:07:41.924Z,7.55
2023-02-11T12:10:20.845Z,7.57
2023-02-11T12:12:54.434Z,7.68
2023-02-11T12:15:29.702Z,7.67
2023-02-11T12:18:03.939Z,7.87
2023-02-11T12:20:34.348Z,7.66
2023-02-11T12:23:27.592Z,7.70
2023-02-11T12:25:59.007Z,7.75
2023-02-11T12:28:33.197Z,7.83
2023-02-11T12:31:05.951Z,7.76
2023-02-11T12:33:56.816Z,7.88
2023-02-11T12:36:29.271Z,7.86
2023-02-11T12:39:03.127Z,7.93
2023-02-11T12:41:52.409Z,7.74
2023-02-11T12:44:25.543Z,7.84
2023-02-11T12:46:56.268Z,7.80
2023-02-11T12:49:29.904Z,7.90
2023-02-11T12:52:09.079Z,7.90
2023-02-11T12:54:38.822Z,7.91
2023-02-11T12:57:08.497Z,7.90
2023-02-11T12:59:42.379Z,7.92
2023-02-11T13:02:15.630Z,8.02
2023-02-11T13:04:46.472Z,8.00
2023-02-11T13:07:16.845Z,7.96
2023-02-11T13:09:47.365Z,7.93
2023-02-11T13:12:33.752Z,7.97
2023-02-11T13:15:06.372Z,7.91
2023-02-11T13:17:39.440Z,7.98
2023-02-11T13:20:14.348Z,7.91
2023-02-11T13:22:45.034Z,7.81
2023-02-11T13:25:18.167Z,7.94
2023-02-11T13:27:50.692Z,7.86
2023-02-11T13:30:27.679Z,7.98
2023-02-11T13:33:07.863Z,7.95
2023-02-11T13:35:38.127Z,8.13
2023-02-11T13:38:07.730Z,8.04
2023-02-11T13:40:37.593Z,7.95
2023-02-11T13:43:07.286Z,8.08
2023-02-11T13:45:39.882Z,8.16
2023-02-11T13:48:15.282Z,8.10
2023-02-11T13:50:48.092Z,8.01
2023-02-11T13:53:17.287Z,8.01
2023-02-11T13:55:47.597Z,7.99
2023-02-11T13:58:21.570Z,7.93
2023-02-11T14:00:53.336Z,7.92
2023-02-11T14:03:41.282Z,8.08
2023-02-11T14:06:38.423Z,8.09
2023-02-11T14:09:12.837Z,8.06
2023-02-11T14:11:46.903Z,8.10
2023-02-11T14:14:21.886Z,8.10
2023-02-11T14:17:09.449Z,8.00
2023-02-11T14:19:43.717Z,8.22
2023-02-11T14:22:16.627Z,8.16
2023-02-11T14:24:48.063Z,8.26
2023-02-11T14:27:20.901Z,8.24
2023-02-11T14:29:56.796Z,8.26
2023-02-11T14:32:31.063Z,8.10
2023-02-11T14:35:01.920Z,8.20
2023-02-11T14:37:37.649Z,8.13
2023-02-11T14:40:10.177Z,8.23
2023-02-11T14:42:39.778Z,8.21
2023-02-11T14:45:11.003Z,8.22
2023-02-11T14:47:42.308Z,8.29
2023-02-11T14:50:17.674Z,8.28
2023-02-11T14:52:47.238Z,8.17
2023-02-11T14:55:18.038Z,8.26
2023-02-11T14:57:51.020Z,8.32
2023-02-11T15:00:22.646Z,8.29
2023-02-11T15:02:53.825Z,8.26
2023-02-11T15:05:26.262Z,8.31
2023-02-11T15:07:56.828Z,8.28
2023-02-11T15:10:31.586Z,8.28
2023-02-11T15:13:01.376Z,8.28
2023-02-11T15:15:30.839Z,8.32
2023-02-11T15:18:01.471Z,8.30
2023-02-11T15:20:33.099Z,8.23
2023-02-11T15:23:03.313Z,8.36
2023-02-11T15:25:34.263Z,8.35
2023-02-11T15:28:11.815Z,8.38
2023-02-11T15:30:41.000Z,8.34
2023-02-11T15:33:21.085Z,8.33
2023-02-11T15:35:51.948Z,8.39
2023-02-11T15:38:21.600Z,8.39
2023-02-11T15:40:54.433Z,8.44
2023-02-11T15:43:24.106Z,8.26
2023-02-11T15:45:57.827Z,8.37
2023-02-11T15:48:28.738Z,8.40
2023-02-11T15:51:00.384Z,8.42
2023-02-11T15:53:30.596Z,8.39
2023-02-11T15:56:02.831Z,8.46
2023-02-11T15:58:37.153Z,8.37
2023-02-11T16:01:06.845Z,8.27
2023-02-11T16:03:36.447Z,8.28
2023-02-11T16:06:22.946Z,8.29
2023-02-11T16:09:02.961Z,8.28
2023-02-11T16:11:32.731Z,8.13
2023-02-11T16:14:05.174Z,8.07
2023-02-11T16:16:35.974Z,8.19
2023-02-11T16:19:06.624Z,8.30
2023-02-11T16:21:39.439Z,8.33
2023-02-11T16:24:09.216Z,8.36
2023-02-11T16:26:39.393Z,8.31
2023-02-11T16:29:11.515Z,8.34
2023-02-11T16:31:41.490Z,8.28
2023-02-11T16:34:17.939Z,8.24
2023-02-11T16:36:50.004Z,8.26
2023-02-11T16:39:21.700Z,8.22
2023-02-11T16:41:51.914Z,8.15
2023-02-11T16:44:21.518Z,8.18
2023-02-11T16:46:50.955Z,8.19
2023-02-11T16:49:22.240Z,8.11
2023-02-11T16:51:53.472Z,8.04
2023-02-11T16:54:23.065Z,8.00
2023-02-11T16:56:52.588Z,7.85
2023-02-11T16:59:22.164Z,7.91
2023-02-11T17:01:51.488Z,7.90
2023-02-11T17:04:25.682Z,7.82
2023-02-11T17:06:58.324Z,7.66
2023-02-11T17:09:31.210Z,7.67
2023-02-11T17:12:03.504Z,7.56
2023-02-11T17:14:33.113Z,7.52
2023-02-11T17:17:02.472Z,7.49
2023-02-11T17:19:32.120Z,7.48
2023-02-11T17:22:02.830Z,7.41
2023-02-11T17:24:33.338Z,7.36
2023-02-11T17:27:03.066Z,7.29
2023-02-11T17:29:32.699Z,7.22
2023-02-11T17:32:04.599Z,7.14
2023-02-11T17:34:35.639Z,7.14
2023-02-11T17:37:09.408Z,7.03
2023-02-11T17:39:39.468Z,7.01
2023-02-11T17:42:09.057Z,6.96
2023-02-11T17:44:41.470Z,6.82
2023-02-11T17:47:10.786Z,6.75
2023-02-11T17:49:40.532Z,6.66
2023-02-11T17:52:11.516Z,6.56
2023-02-11T17:54:41.157Z,6.51
2023-02-11T17:57:11.583Z,6.48
2023-02-11T17:59:41.294Z,6.37
2023-02-11T18:02:12.164Z,6.39
2023-02-11T18:04:41.789Z,6.37
2023-02-11T18:07:12.575Z,6.23
2023-02-11T18:09:42.355Z,6.17
2023-02-11T18:12:12.113Z,6.20
2023-02-11T18:14:44.495Z,6.13
2023-02-11T18:17:13.743Z,6.10
2023-02-11T18:19:46.590Z,6.06
2023-02-11T18:22:17.287Z,6.03
2023-02-11T18:24:46.798Z,5.95
2023-02-11T18:27:16.102Z,5.93
2023-02-11T18:29:48.642Z,5.89
2023-02-11T18:32:18.042Z,5.84
2023-02-11T18:34:50.549Z,5.77
2023-02-11T18:37:23.747Z,5.74
2023-02-11T18:39:53.384Z,5.71
2023-02-11T18:42:22.686Z,5.65
2023-02-11T18:44:53.457Z,5.62
2023-02-11T18:47:24.975Z,5.65
2023-02-11T18:49:56.146Z,5.61
2023-02-11T18:52:33.822Z,5.65
2023-02-11T18:55:06.321Z,5.56
2023-02-11T18:57:36.715Z,5.53
2023-02-11T19:00:12.835Z,5.62
2023-02-11T19:02:44.449Z,5.59
2023-02-11T19:05:14.155Z,5.62
2023-02-11T19:07:44.986Z,5.55
2023-02-11T19:10:15.057Z,5.52
2023-02-11T19:12:45.128Z,5.54
2023-02-11T19:15:15.418Z,5.56
2023-02-11T19:17:44.655Z,5.54
2023-02-11T19:20:14.303Z,5.56
2023-02-11T19:22:45.043Z,5.54
2023-02-11T19:25:14.599Z,5.48
2023-02-11T19:27:45.320Z,5.51
2023-02-11T19:30:15.600Z,5.58
2023-02-11T19:32:44.954Z,5.55
2023-02-11T19:35:14.642Z,5.45
2023-02-11T19:37:45.840Z,5.47
2023-02-11T19:40:16.732Z,5.48
2023-02-11T19:42:46.000Z,5.50
2023-02-11T19:45:15.578Z,5.48
2023-02-11T19:47:44.906Z,5.40
2023-02-11T19:50:14.498Z,5.33
2023-02-11T19:52:43.724Z,5.38
2023-02-11T19:55:14.934Z,5.40
2023-02-11T19:57:44.169Z,5.43
2023-02-11T20:00:14.102Z,5.45
2023-02-11T20:02:43.374Z,5.43
2023-02-11T20:05:13.073Z,5.45
2023-02-11T20:07:42.257Z,5.40
2023-02-11T20:10:12.122Z,5.36
2023-02-11T20:12:42.836Z,5.36
2023-02-11T20:15:12.425Z,5.41
2023-02-11T20:17:41.571Z,5.44
2023-02-11T20:20:11.461Z,5.44
2023-02-11T20:22:40.740Z,5.48
2023-02-11T20:25:11.910Z,5.47
2023-02-11T20:27:42.576Z,5.42
2023-02-11T20:30:13.364Z,5.39
2023-02-11T20:32:42.573Z,5.38
2023-02-11T20:35:12.125Z,5.39
2023-02-11T20:37:44.023Z,5.37
2023-02-11T20:40:14.154Z,5.29
2023-02-11T20:42:44.822Z,5.27
2023-02-11T20:45:14.422Z,5.31
2023-02-11T20:47:43.754Z,5.27
2023-02-11T20:50:13.393Z,5.24
2023-02-11T20:52:42.713Z,5.25
2023-02-11T20:55:12.308Z,5.18
2023-02-11T20:57:41.602Z,5.26
2023-02-11T21:00:14.671Z,5.22
2023-02-11T21:02:43.914Z,5.19
2023-02-11T21:05:13.641Z,5.08
2023-02-11T21:07:42.860Z,5.15
2023-02-11T21:10:12.833Z,5.07
2023-02-11T21:12:42.122Z,4.99
2023-02-11T21:15:13.442Z,5.06
2023-02-11T21:17:42.692Z,5.08
2023-02-11T21:20:12.612Z,5.08
2023-02-11T21:22:41.868Z,5.09
2023-02-11T21:25:11.838Z,5.05
2023-02-11T21:27:41.136Z,5.05
2023-02-11T21:30:11.576Z,4.99
2023-02-11T21:32:42.326Z,4.97
2023-02-11T21:35:11.887Z,5.09
2023-02-11T21:37:41.091Z,5.09
2023-02-11T21:40:11.458Z,4.99
2023-02-11T21:42:40.829Z,5.07
2023-02-11T21:45:10.955Z,5.13
2023-02-11T21:47:41.712Z,5.09
2023-02-11T21:50:11.631Z,5.02
2023-02-11T21:52:40.940Z,4.99
2023-02-11T21:55:10.613Z,4.97
2023-02-11T21:57:39.887Z,5.06
2023-02-11T22:00:10.136Z,5.10
2023-02-11T22:02:39.462Z,5.10
2023-02-11T22:05:10.573Z,5.11
2023-02-11T22:07:39.847Z,4.93
2023-02-11T22:10:09.962Z,4.97
2023-02-11T22:12:39.207Z,5.06
2023-02-11T22:15:09.347Z,5.07
2023-02-11T22:17:38.687Z,5.06
2023-02-11T22:20:08.794Z,4.99
2023-02-11T22:22:39.558Z,5.05
2023-02-11T22:25:09.345Z,5.07
2023-02-11T22:27:38.591Z,5.06
2023-02-11T22:30:08.835Z,4.97
2023-02-11T22:32:38.067Z,4.92
2023-02-11T22:35:08.030Z,4.98
2023-02-11T22:37:37.598Z,4.95
2023-02-11T22:40:09.444Z,4.96
2023-02-11T22:42:38.771Z,4.96
2023-02-11T22:45:08.859Z,5.03
2023-02-11T22:47:39.023Z,4.97
2023-02-11T22:50:08.898Z,5.01
2023-02-11T22:52:38.224Z,5.03
2023-02-11T22:55:09.847Z,5.04
2023-02-11T22:57:39.100Z,5.06
2023-02-11T23:00:09.966Z,5.09
2023-02-11T23:02:39.326Z,5.07
2023-02-11T23:05:08.962Z,5.08
2023-02-11T23:07:38.149Z,5.06
2023-02-11T23:10:09.950Z,5.11
2023-02-11T23:12:39.301Z,5.14
2023-02-11T23:15:09.479Z,5.10
2023-02-11T23:17:38.756Z,5.14
2023-02-11T23:20:08.853Z,5.08
2023-02-11T23:22:38.175Z,5.05
2023-02-11T23:25:09.543Z,5.07
2023-02-11T23:27:38.842Z,5.06
2023-02-11T23:30:09.093Z,5.03
2023-02-11T23:32:39.314Z,5.06
2023-02-11T23:35:09.157Z,5.07
2023-02-11T23:37:38.473Z,5.10
2023-02-11T23:40:10.368Z,5.14
2023-02-11T23:42:39.606Z,5.12
2023-02-11T23:45:09.561Z,5.13
2023-02-11T23:47:39.358Z,5.12
2023-02-11T23:50:09.256Z,5.16
2023-02-11T23:52:38.647Z,5.17
2023-02-11T23:55:09.905Z,5.15
2023-02-11T23:57:39.167Z,5.12
